createdAt,value
2019-05-05T00:01:00.276Z,97803.72
2019-05-05T00:03:49.468Z,97811.48
2019-05-05T00:06:19.913Z,97820.27
2019-05-05T00:08:51.194Z,97820.56
2019-05-05T00:11:32.662Z,97817.36
2019-05-05T00:14:28.430Z,97816.28
2019-05-05T00:17:19.854Z,97822.19
2019-05-05T00:19:50.168Z,97817.37
2019-05-05T00:22:20.323Z,97818.33
2019-05-05T00:24:50.777Z,97820.20
2019-05-05T00:27:20.974Z,97822.94
2019-05-05T00:29:51.432Z,97828.58
2019-05-05T00:32:21.682Z,97829.63
2019-05-05T00:34:54.986Z,97825.87
2019-05-05T00:37:25.684Z,97829.89
2019-05-05T00:39:56.032Z,97828.84
2019-05-05T00:42:26.293Z,97835.30
2019-05-05T00:44:56.554Z,97825.82
2019-05-05T00:47:46.634Z,97831.40
2019-05-05T00:50:19.399Z,97846.32
2019-05-05T00:52:49.509Z,97845.28
2019-05-05T00:55:19.649Z,97847.95
2019-05-05T00:57:49.917Z,97847.14
2019-05-05T01:00:41.888Z,97850.64
2019-05-05T01:03:15.289Z,97858.17
2019-05-05T01:06:04.540Z,97849.14
2019-05-05T01:08:35.496Z,97850.48
2019-05-05T01:11:05.951Z,97853.45
2019-05-05T01:13:36.091Z,97853.48
2019-05-05T01:16:06.398Z,97854.32
2019-05-05T01:18:36.909Z,97852.73
2019-05-05T01:21:07.542Z,97860.21
2019-05-05T01:23:37.809Z,97862.11
2019-05-05T01:26:08.302Z,97867.73
2019-05-05T01:28:38.969Z,97879.22
2019-05-05T01:31:14.648Z,97877.36
2019-05-05T01:34:19.618Z,97884.06
2019-05-05T01:36:54.959Z,97880.55
2019-05-05T01:39:32.044Z,97876.49
2019-05-05T01:42:05.068Z,97878.35
2019-05-05T01:44:35.485Z,97883.72
2019-05-05T01:47:05.947Z,97874.63
2019-05-05T01:49:36.118Z,97876.50
2019-05-05T01:52:06.433Z,97871.69
2019-05-05T01:54:36.620Z,97873.23
2019-05-05T01:57:07.191Z,97873.94
2019-05-05T01:59:38.172Z,97876.30
2019-05-05T02:02:08.430Z,97873.03
2019-05-05T02:04:39.008Z,97876.73
2019-05-05T02:07:09.407Z,97882.86
2019-05-05T02:09:39.629Z,97881.24
2019-05-05T02:12:09.876Z,97881.77
2019-05-05T02:14:40.049Z,97886.53
2019-05-05T02:17:10.169Z,97890.80
2019-05-05T02:19:40.305Z,97883.05
2019-05-05T02:22:10.574Z,97890.69
2019-05-05T02:24:40.864Z,97893.89
2019-05-05T02:27:10.984Z,97902.45
2019-05-05T02:29:54.877Z,97901.05
2019-05-05T02:32:38.069Z,97903.48
2019-05-05T02:35:11.775Z,97901.11
2019-05-05T02:37:45.454Z,97902.39
2019-05-05T02:40:16.078Z,97911.50
2019-05-05T02:42:46.531Z,97910.72
2019-05-05T02:45:37.131Z,97915.30
2019-05-05T02:48:15.610Z,97914.30
2019-05-05T02:51:01.707Z,97915.09
2019-05-05T02:53:34.153Z,97916.11
2019-05-05T02:56:06.665Z,97925.45
2019-05-05T02:58:38.802Z,97921.73
2019-05-05T03:01:26.545Z,97923.62
2019-05-05T03:03:57.340Z,97926.09
2019-05-05T03:06:27.533Z,97924.02
2019-05-05T03:08:58.330Z,97922.42
2019-05-05T03:11:30.797Z,97929.91
2019-05-05T03:14:04.075Z,97934.50
2019-05-05T03:16:37.644Z,97928.89
2019-05-05T03:19:08.916Z,97936.70
2019-05-05T03:21:40.238Z,97938.81
2019-05-05T03:24:11.255Z,97928.98
2019-05-05T03:26:41.688Z,97940.77
2019-05-05T03:29:15.929Z,97936.00
2019-05-05T03:31:46.186Z,97934.17
2019-05-05T03:34:16.880Z,97929.08
2019-05-05T03:36:47.224Z,97937.31
2019-05-05T03:39:29.147Z,97935.92
2019-05-05T03:42:16.605Z,97935.95
2019-05-05T03:44:54.592Z,97947.73
2019-05-05T03:47:25.857Z,97947.45
2019-05-05T03:49:57.443Z,97948.30
2019-05-05T03:52:29.260Z,97947.98
2019-05-05T03:54:59.839Z,97948.79
2019-05-05T03:57:29.991Z,97942.69
2019-05-05T04:00:00.333Z,97945.14
2019-05-05T04:02:41.492Z,97936.09
2019-05-05T04:05:37.034Z,97938.22
2019-05-05T04:08:07.503Z,97932.08
2019-05-05T04:10:38.413Z,97934.45
2019-05-05T04:13:08.910Z,97938.51
2019-05-05T04:15:40.733Z,97940.15
2019-05-05T04:18:19.152Z,97939.38
2019-05-05T04:20:49.477Z,97938.88
2019-05-05T04:23:19.674Z,97939.97
2019-05-05T04:25:49.790Z,97939.41
2019-05-05T04:28:19.913Z,97943.13
2019-05-05T04:30:50.498Z,97941.23
2019-05-05T04:33:21.141Z,97946.66
2019-05-05T04:35:51.414Z,97948.52
2019-05-05T04:38:21.815Z,97952.30
2019-05-05T04:40:54.069Z,97955.25
2019-05-05T04:43:24.612Z,97957.67
2019-05-05T04:45:55.022Z,97957.67
2019-05-05T04:48:35.103Z,97956.05
2019-05-05T04:51:13.932Z,97963.55
2019-05-05T04:54:03.833Z,97958.48
2019-05-05T04:56:34.520Z,97957.14
2019-05-05T04:59:05.168Z,97961.98
2019-05-05T05:01:36.040Z,97955.78
2019-05-05T05:04:34.665Z,97958.27
2019-05-05T05:07:04.986Z,97955.64
2019-05-05T05:09:35.264Z,97957.77
2019-05-05T05:12:05.654Z,97963.09
2019-05-05T05:14:35.918Z,97970.60
2019-05-05T05:17:10.478Z,97975.70
2019-05-05T05:19:40.915Z,97974.95
2019-05-05T05:22:13.563Z,97991.84
2019-05-05T05:24:44.665Z,97991.63
2019-05-05T05:27:15.293Z,97994.61
2019-05-05T05:29:45.543Z,98001.07
2019-05-05T05:32:15.813Z,97990.36
2019-05-05T05:34:46.045Z,98000.27
2019-05-05T05:37:16.338Z,98006.11
2019-05-05T05:40:08.573Z,98017.63
2019-05-05T05:42:39.864Z,98022.44
2019-05-05T05:45:34.258Z,98020.38
2019-05-05T05:48:26.232Z,98026.83
2019-05-05T05:51:01.748Z,98037.83
2019-05-05T05:53:31.878Z,98045.56
2019-05-05T05:56:04.215Z,98042.59
2019-05-05T05:58:35.131Z,98045.56
2019-05-05T06:01:06.371Z,98045.02
2019-05-05T06:03:36.604Z,98042.09
2019-05-05T06:06:06.730Z,98046.09
2019-05-05T06:08:36.971Z,98052.53
2019-05-05T06:11:07.144Z,98056.86
2019-05-05T06:13:37.334Z,98052.88
2019-05-05T06:16:07.474Z,98047.30
2019-05-05T06:18:37.623Z,98052.42
2019-05-05T06:21:07.884Z,98051.36
2019-05-05T06:23:38.053Z,98060.78
2019-05-05T06:26:08.276Z,98067.27
2019-05-05T06:28:38.392Z,98071.24
2019-05-05T06:31:08.573Z,98083.08
2019-05-05T06:33:38.697Z,98088.47
2019-05-05T06:36:09.006Z,98085.80
2019-05-05T06:38:39.144Z,98087.45
2019-05-05T06:41:17.674Z,98089.56
2019-05-05T06:44:06.915Z,98097.63
2019-05-05T06:46:55.316Z,98103.57
2019-05-05T06:49:25.523Z,98103.56
2019-05-05T06:51:56.163Z,98105.95
2019-05-05T06:54:26.828Z,98107.55
2019-05-05T06:56:57.104Z,98114.23
2019-05-05T06:59:27.379Z,98116.11
2019-05-05T07:01:57.809Z,98118.52
2019-05-05T07:04:28.156Z,98121.20
2019-05-05T07:06:58.723Z,98125.45
2019-05-05T07:09:29.003Z,98132.67
2019-05-05T07:11:59.304Z,98137.45
2019-05-05T07:14:29.733Z,98140.44
2019-05-05T07:17:00.039Z,98147.66
2019-05-05T07:19:30.323Z,98147.20
2019-05-05T07:22:00.587Z,98159.82
2019-05-05T07:24:34.475Z,98168.09
2019-05-05T07:27:04.989Z,98177.08
2019-05-05T07:29:36.446Z,98172.40
2019-05-05T07:32:06.826Z,98179.20
2019-05-05T07:35:03.954Z,98179.06
2019-05-05T07:37:34.389Z,98172.71
2019-05-05T07:40:05.861Z,98184.33
2019-05-05T07:42:36.702Z,98181.74
2019-05-05T07:45:20.263Z,98188.70
2019-05-05T07:47:43.653Z,98184.56
2019-05-05T07:50:27.885Z,98194.30
2019-05-05T07:52:46.565Z,98196.23
2019-05-05T07:55:16.795Z,98182.42
2019-05-05T07:57:47.036Z,98194.63
2019-05-05T08:00:17.174Z,98203.58
2019-05-05T08:02:47.922Z,98205.97
2019-05-05T08:05:18.410Z,98204.13
2019-05-05T08:07:49.103Z,98203.86
2019-05-05T08:10:19.886Z,98205.39
2019-05-05T08:12:50.303Z,98202.20
2019-05-05T08:15:23.785Z,98195.10
2019-05-05T08:18:13.818Z,98194.89
2019-05-05T08:20:46.802Z,98198.41
2019-05-05T08:23:32.790Z,98198.12
2019-05-05T08:26:10.986Z,98190.86
2019-05-05T08:29:04.640Z,98194.03
2019-05-05T08:31:57.060Z,98195.67
2019-05-05T08:34:27.781Z,98190.97
2019-05-05T08:36:59.890Z,98198.25
2019-05-05T08:39:30.521Z,98198.72
2019-05-05T08:42:01.434Z,98206.03
2019-05-05T08:44:34.128Z,98205.63
2019-05-05T08:47:04.694Z,98205.55
2019-05-05T08:49:35.595Z,98208.25
2019-05-05T08:52:06.363Z,98204.64
2019-05-05T08:54:36.888Z,98202.27
2019-05-05T08:57:07.544Z,98202.09
2019-05-05T08:59:38.076Z,98198.23
2019-05-05T09:02:08.600Z,98198.59
2019-05-05T09:04:39.502Z,98196.23
2019-05-05T09:07:10.625Z,98199.34
2019-05-05T09:09:41.025Z,98189.89
2019-05-05T09:12:13.897Z,98195.57
2019-05-05T09:14:44.939Z,98187.14
2019-05-05T09:17:16.323Z,98189.48
2019-05-05T09:19:46.804Z,98192.32
2019-05-05T09:22:17.415Z,98192.57
2019-05-05T09:25:07.087Z,98199.22
2019-05-05T09:27:50.154Z,98193.26
2019-05-05T09:30:34.560Z,98184.20
2019-05-05T09:33:05.550Z,98185.22
2019-05-05T09:35:36.169Z,98188.59
2019-05-05T09:38:09.482Z,98187.06
2019-05-05T09:40:43.805Z,98195.47
2019-05-05T09:43:14.895Z,98194.92
2019-05-05T09:45:45.839Z,98194.58
2019-05-05T09:48:16.035Z,98190.80
2019-05-05T09:50:47.091Z,98192.96
2019-05-05T09:53:18.474Z,98188.80
2019-05-05T09:55:48.823Z,98200.44
2019-05-05T09:58:19.220Z,98197.76
2019-05-05T10:00:49.621Z,98189.48
2019-05-05T10:03:20.196Z,98197.11
2019-05-05T10:05:50.416Z,98192.16
2019-05-05T10:08:20.861Z,98189.58
2019-05-05T10:10:51.201Z,98199.43
2019-05-05T10:13:21.909Z,98194.58
2019-05-05T10:15:54.781Z,98205.19
2019-05-05T10:18:25.487Z,98200.61
2019-05-05T10:20:56.474Z,98209.24
2019-05-05T10:23:28.482Z,98209.33
2019-05-05T10:26:04.357Z,98202.41
2019-05-05T10:28:35.143Z,98199.44
2019-05-05T10:31:05.808Z,98203.33
2019-05-05T10:33:39.800Z,98195.70
2019-05-05T10:36:10.194Z,98198.70
2019-05-05T10:38:44.455Z,98201.96
2019-05-05T10:41:14.971Z,98198.45
2019-05-05T10:43:45.336Z,98205.13
2019-05-05T10:46:15.865Z,98190.64
2019-05-05T10:48:46.468Z,98186.41
2019-05-05T10:51:16.671Z,98194.43
2019-05-05T10:53:47.106Z,98182.29
2019-05-05T10:56:17.769Z,98184.08
2019-05-05T10:58:48.077Z,98182.34
2019-05-05T11:01:18.505Z,98195.06
2019-05-05T11:03:49.095Z,98196.31
2019-05-05T11:06:20.812Z,98198.47
2019-05-05T11:08:54.018Z,98192.39
2019-05-05T11:11:24.526Z,98194.55
2019-05-05T11:13:55.125Z,98194.78
2019-05-05T11:16:25.541Z,98193.38
2019-05-05T11:18:56.335Z,98194.66
2019-05-05T11:21:26.748Z,98193.68
2019-05-05T11:23:57.347Z,98186.06
2019-05-05T11:26:27.830Z,98184.98
2019-05-05T11:28:58.156Z,98187.09
2019-05-05T11:31:28.428Z,98185.75
2019-05-05T11:34:17.684Z,98187.87
2019-05-05T11:37:16.480Z,98185.77
2019-05-05T11:39:46.696Z,98180.83
2019-05-05T11:42:17.205Z,98186.16
2019-05-05T11:44:47.793Z,98185.24
2019-05-05T11:47:18.199Z,98195.67
2019-05-05T11:49:48.462Z,98199.92
2019-05-05T11:52:18.779Z,98203.89
2019-05-05T11:54:49.090Z,98204.45
2019-05-05T11:57:19.455Z,98197.04
2019-05-05T11:59:50.230Z,98203.52
2019-05-05T12:02:20.441Z,98211.91
2019-05-05T12:04:50.858Z,98208.57
2019-05-05T12:07:23.619Z,98209.86
2019-05-05T12:09:56.777Z,98208.30
2019-05-05T12:12:27.103Z,98206.96
2019-05-05T12:14:57.340Z,98207.65
2019-05-05T12:17:37.262Z,98209.28
2019-05-05T12:20:10.302Z,98210.16
2019-05-05T12:22:41.169Z,98205.13
2019-05-05T12:25:29.906Z,98212.16
2019-05-05T12:28:04.924Z,98210.97
2019-05-05T12:30:39.991Z,98203.78
2019-05-05T12:33:10.850Z,98207.23
2019-05-05T12:35:41.463Z,98215.23
2019-05-05T12:38:12.259Z,98206.90
2019-05-05T12:40:44.255Z,98211.93
2019-05-05T12:43:15.524Z,98218.21
2019-05-05T12:45:49.507Z,98216.45
2019-05-05T12:48:25.571Z,98207.83
2019-05-05T12:50:56.288Z,98214.55
2019-05-05T12:53:27.931Z,98212.30
2019-05-05T12:55:59.999Z,98218.11
2019-05-05T12:58:30.455Z,98215.44
2019-05-05T13:01:09.197Z,98219.56
2019-05-05T13:03:39.893Z,98210.93
2019-05-05T13:06:11.351Z,98223.41
2019-05-05T13:08:41.962Z,98223.27
2019-05-05T13:11:13.608Z,98228.81
2019-05-05T13:13:44.194Z,98215.94
2019-05-05T13:16:15.066Z,98219.80
2019-05-05T13:18:45.729Z,98217.23
2019-05-05T13:21:45.503Z,98209.17
2019-05-05T13:24:35.105Z,98214.34
2019-05-05T13:27:19.258Z,98208.34
2019-05-05T13:29:44.726Z,98205.88
2019-05-05T13:32:15.355Z,98205.98
2019-05-05T13:34:46.124Z,98205.80
2019-05-05T13:37:16.596Z,98201.86
2019-05-05T13:39:47.444Z,98200.42
2019-05-05T13:42:17.825Z,98197.09
2019-05-05T13:44:52.303Z,98201.53
2019-05-05T13:47:23.869Z,98200.42
2019-05-05T13:49:57.730Z,98194.89
2019-05-05T13:52:28.196Z,98191.30
2019-05-05T13:54:58.493Z,98195.79
2019-05-05T13:57:29.142Z,98193.05
2019-05-05T13:59:59.853Z,98186.08
2019-05-05T14:02:30.288Z,98182.11
2019-05-05T14:05:01.008Z,98185.20
2019-05-05T14:07:31.261Z,98181.13
2019-05-05T14:10:03.793Z,98173.36
2019-05-05T14:12:34.831Z,98172.25
2019-05-05T14:15:06.584Z,98164.44
2019-05-05T14:17:36.910Z,98172.56
2019-05-05T14:20:11.884Z,98164.13
2019-05-05T14:22:40.169Z,98165.50
2019-05-05T14:25:35.700Z,98165.97
2019-05-05T14:28:06.257Z,98168.19
2019-05-05T14:31:04.443Z,98151.36
2019-05-05T14:33:54.226Z,98158.10
2019-05-05T14:36:33.514Z,98162.81
2019-05-05T14:39:06.216Z,98167.42
2019-05-05T14:41:38.550Z,98158.41
2019-05-05T14:44:09.291Z,98157.61
2019-05-05T14:46:39.927Z,98161.67
2019-05-05T14:49:10.143Z,98163.92
2019-05-05T14:51:40.454Z,98161.38
2019-05-05T14:54:10.894Z,98166.63
2019-05-05T14:56:41.586Z,98165.55
2019-05-05T14:59:14.062Z,98171.00
2019-05-05T15:01:44.721Z,98176.64
2019-05-05T15:04:17.312Z,98170.78
2019-05-05T15:07:01.250Z,98171.91
2019-05-05T15:09:49.770Z,98182.50
2019-05-05T15:12:40.332Z,98180.77
2019-05-05T15:15:10.889Z,98180.64
2019-05-05T15:17:41.383Z,98176.55
2019-05-05T15:20:13.844Z,98176.00
2019-05-05T15:22:43.933Z,98175.47
2019-05-05T15:25:14.270Z,98170.02
2019-05-05T15:27:45.100Z,98173.23
2019-05-05T15:30:15.753Z,98172.41
2019-05-05T15:32:46.229Z,98174.12
2019-05-05T15:35:16.926Z,98169.70
2019-05-05T15:37:47.329Z,98172.22
2019-05-05T15:40:19.307Z,98164.19
2019-05-05T15:42:49.812Z,98173.05
2019-05-05T15:45:20.232Z,98168.80
2019-05-05T15:47:51.046Z,98165.59
2019-05-05T15:50:21.366Z,98174.25
2019-05-05T15:52:51.786Z,98175.81
2019-05-05T15:55:24.425Z,98176.17
2019-05-05T15:57:54.881Z,98177.92
2019-05-05T16:00:25.698Z,98177.32
2019-05-05T16:02:57.073Z,98176.39
2019-05-05T16:05:27.512Z,98181.98
2019-05-05T16:07:58.273Z,98186.61
2019-05-05T16:10:28.747Z,98181.31
2019-05-05T16:12:59.795Z,98181.17
2019-05-05T16:15:53.502Z,98179.52
2019-05-05T16:18:48.096Z,98175.34
2019-05-05T16:21:34.689Z,98181.64
2019-05-05T16:24:10.746Z,98172.91
2019-05-05T16:26:41.135Z,98166.92
2019-05-05T16:29:11.734Z,98174.42
2019-05-05T16:31:42.074Z,98172.66
2019-05-05T16:34:14.142Z,98174.64
2019-05-05T16:36:44.523Z,98168.65
2019-05-05T16:39:16.414Z,98175.55
2019-05-05T16:41:46.974Z,98182.11
2019-05-05T16:44:17.448Z,98176.55
2019-05-05T16:46:47.666Z,98182.19
2019-05-05T16:49:19.442Z,98171.56
2019-05-05T16:52:04.073Z,98175.85
2019-05-05T16:54:39.411Z,98178.02
2019-05-05T16:57:09.962Z,98189.22
2019-05-05T16:59:40.472Z,98183.16
2019-05-05T17:02:11.006Z,98180.76
2019-05-05T17:04:43.256Z,98182.19
2019-05-05T17:07:14.270Z,98186.71
2019-05-05T17:09:44.838Z,98191.31
2019-05-05T17:12:18.146Z,98187.30
2019-05-05T17:14:59.982Z,98195.83
2019-05-05T17:17:37.561Z,98196.30
2019-05-05T17:20:13.904Z,98199.04
2019-05-05T17:23:04.110Z,98198.00
2019-05-05T17:25:35.127Z,98198.96
2019-05-05T17:28:05.770Z,98204.30
2019-05-05T17:30:36.133Z,98201.63
2019-05-05T17:33:06.727Z,98201.75
2019-05-05T17:35:37.141Z,98205.90
2019-05-05T17:38:08.616Z,98210.09
2019-05-05T17:40:57.996Z,98213.48
2019-05-05T17:43:59.583Z,98212.73
2019-05-05T17:46:35.469Z,98215.57
2019-05-05T17:49:26.990Z,98223.61
2019-05-05T17:52:09.893Z,98221.28
2019-05-05T17:54:45.798Z,98226.06
2019-05-05T17:57:16.404Z,98225.88
2019-05-05T17:59:46.977Z,98224.50
2019-05-05T18:02:17.857Z,98223.75
2019-05-05T18:04:48.302Z,98229.86
2019-05-05T18:07:39.938Z,98231.20
2019-05-05T18:10:18.222Z,98225.64
2019-05-05T18:13:07.512Z,98235.84
2019-05-05T18:15:54.201Z,98228.62
2019-05-05T18:18:24.507Z,98229.55
2019-05-05T18:20:55.096Z,98236.66
2019-05-05T18:23:25.703Z,98234.58
2019-05-05T18:25:56.072Z,98234.70
2019-05-05T18:28:26.488Z,98232.34
2019-05-05T18:30:57.097Z,98242.74
2019-05-05T18:33:27.617Z,98248.66
2019-05-05T18:35:58.128Z,98246.14
2019-05-05T18:38:28.841Z,98252.97
2019-05-05T18:41:03.739Z,98253.25
2019-05-05T18:43:41.171Z,98252.17
2019-05-05T18:46:13.742Z,98258.38
2019-05-05T18:48:44.197Z,98260.84
2019-05-05T18:51:17.540Z,98259.55
2019-05-05T18:53:48.089Z,98257.39
2019-05-05T18:56:18.443Z,98268.98
2019-05-05T18:58:48.854Z,98265.52
2019-05-05T19:01:44.582Z,98267.42
2019-05-05T19:04:29.815Z,98266.39
2019-05-05T19:07:14.610Z,98271.80
2019-05-05T19:09:54.013Z,98279.05
2019-05-05T19:12:17.844Z,98277.42
2019-05-05T19:14:49.162Z,98281.16
2019-05-05T19:17:20.551Z,98275.47
2019-05-05T19:19:55.067Z,98282.89
2019-05-05T19:22:26.061Z,98284.47
2019-05-05T19:24:58.197Z,98292.45
2019-05-05T19:27:28.676Z,98287.84
2019-05-05T19:29:59.199Z,98291.72
2019-05-05T19:32:29.683Z,98287.39
2019-05-05T19:35:00.338Z,98286.48
2019-05-05T19:37:31.044Z,98293.05
2019-05-05T19:40:04.319Z,98295.03
2019-05-05T19:42:34.362Z,98300.89
2019-05-05T19:45:05.088Z,98300.26
2019-05-05T19:47:35.713Z,98311.73
2019-05-05T19:50:24.427Z,98305.16
2019-05-05T19:52:55.363Z,98308.23
2019-05-05T19:55:26.152Z,98304.63
2019-05-05T19:57:56.988Z,98303.38
2019-05-05T20:00:27.577Z,98306.75
2019-05-05T20:03:04.373Z,98305.46
2019-05-05T20:05:30.884Z,98308.02
2019-05-05T20:08:04.017Z,98304.84
2019-05-05T20:10:34.168Z,98302.13
2019-05-05T20:13:05.245Z,98305.20
2019-05-05T20:15:44.145Z,98300.50
2019-05-05T20:18:14.425Z,98303.31
2019-05-05T20:20:45.110Z,98306.92
2019-05-05T20:23:16.228Z,98306.96
2019-05-05T20:25:46.803Z,98305.94
2019-05-05T20:28:17.373Z,98307.09
2019-05-05T20:30:47.983Z,98304.18
2019-05-05T20:33:36.426Z,98307.44
2019-05-05T20:36:16.769Z,98306.09
2019-05-05T20:38:52.163Z,98306.70
2019-05-05T20:41:24.867Z,98308.14
2019-05-05T20:43:55.875Z,98303.07
2019-05-05T20:46:26.253Z,98305.95
2019-05-05T20:48:56.778Z,98304.81
2019-05-05T20:51:27.059Z,98305.38
2019-05-05T20:53:57.560Z,98311.12
2019-05-05T20:56:28.313Z,98303.88
2019-05-05T20:58:58.622Z,98300.48
2019-05-05T21:01:29.118Z,98297.76
2019-05-05T21:03:59.623Z,98296.13
2019-05-05T21:06:30.114Z,98294.80
2019-05-05T21:09:00.442Z,98293.84
2019-05-05T21:11:32.635Z,98292.09
2019-05-05T21:14:04.021Z,98293.53
2019-05-05T21:16:34.523Z,98297.39
2019-05-05T21:19:05.644Z,98294.09
2019-05-05T21:21:37.618Z,98293.22
2019-05-05T21:24:09.116Z,98293.95
2019-05-05T21:26:55.511Z,98286.48
2019-05-05T21:29:38.452Z,98285.91
2019-05-05T21:31:58.315Z,98288.54
2019-05-05T21:34:28.573Z,98289.41
2019-05-05T21:36:58.901Z,98288.92
2019-05-05T21:39:29.467Z,98288.35
2019-05-05T21:42:00.159Z,98286.39
2019-05-05T21:44:30.517Z,98287.40
2019-05-05T21:47:00.824Z,98285.74
2019-05-05T21:49:33.666Z,98292.34
2019-05-05T21:52:25.923Z,98295.20
2019-05-05T21:55:13.958Z,98296.66
2019-05-05T21:58:15.632Z,98304.81
2019-05-05T22:01:04.317Z,98304.81
2019-05-05T22:03:37.293Z,98295.16
2019-05-05T22:06:07.692Z,98295.16
2019-05-05T22:08:38.126Z,98295.28
2019-05-05T22:11:08.656Z,98302.98
2019-05-05T22:13:38.925Z,98301.03
2019-05-05T22:16:09.148Z,98301.31
2019-05-05T22:18:39.512Z,98300.52
2019-05-05T22:21:28.907Z,98300.55
2019-05-05T22:24:35.679Z,98299.23
2019-05-05T22:27:05.342Z,98301.12
2019-05-05T22:29:35.688Z,98308.66
2019-05-05T22:32:06.281Z,98308.15
2019-05-05T22:34:36.918Z,98311.14
2019-05-05T22:37:09.559Z,98308.25
2019-05-05T22:39:39.353Z,98316.36
2019-05-05T22:42:09.708Z,98312.72
2019-05-05T22:44:39.971Z,98311.52
2019-05-05T22:47:11.191Z,98309.44
2019-05-05T22:49:41.392Z,98318.04
2019-05-05T22:52:11.696Z,98309.34
2019-05-05T22:54:41.894Z,98307.59
2019-05-05T22:57:14.048Z,98306.68
2019-05-05T22:59:44.645Z,98311.45
2019-05-05T23:02:16.796Z,98304.15
2019-05-05T23:04:56.836Z,98307.28
2019-05-05T23:07:29.981Z,98306.47
2019-05-05T23:10:00.408Z,98306.16
2019-05-05T23:12:31.486Z,98304.25
2019-05-05T23:15:03.841Z,98310.03
2019-05-05T23:17:55.943Z,98306.79
2019-05-05T23:21:02.246Z,98302.94
2019-05-05T23:23:59.942Z,98311.16
2019-05-05T23:26:35.677Z,98311.84
2019-05-05T23:29:04.375Z,98312.58
2019-05-05T23:31:34.527Z,98316.00
2019-05-05T23:34:05.003Z,98318.95
2019-05-05T23:36:35.425Z,98323.22
2019-05-05T23:39:07.903Z,98319.23
2019-05-05T23:41:38.176Z,98322.87
2019-05-05T23:44:08.586Z,98318.22
2019-05-05T23:46:38.736Z,98315.72
2019-05-05T23:49:08.925Z,98318.97
2019-05-05T23:51:39.113Z,98318.16
2019-05-05T23:54:09.183Z,98317.36
2019-05-05T23:56:39.415Z,98319.79
2019-05-05T23:59:09.720Z,98321.63
